createdAt,value
2018-12-01T00:00:22.753Z,72.70
2018-12-01T00:00:56.232Z,72.90
2018-12-01T00:01:30.999Z,72.90
2018-12-01T00:02:05.112Z,72.80
2018-12-01T00:02:38.899Z,72.80
2018-12-01T00:03:13.023Z,72.90
2018-12-01T00:03:48.546Z,72.90
2018-12-01T00:04:22.193Z,72.90
2018-12-01T00:04:55.730Z,72.90
2018-12-01T00:05:29.283Z,72.90
2018-12-01T00:06:03.845Z,73.00
2018-12-01T00:06:39.093Z,73.00
2018-12-01T00:07:12.689Z,72.90
2018-12-01T00:07:47.648Z,73.10
2018-12-01T00:08:21.134Z,73.20
2018-12-01T00:08:54.911Z,73.40
2018-12-01T00:09:28.405Z,73.30
2018-12-01T00:10:02.561Z,73.20
2018-12-01T00:10:37.262Z,73.10
2018-12-01T00:11:11.947Z,73.20
2018-12-01T00:11:46.608Z,73.20
2018-12-01T00:12:20.111Z,73.20
2018-12-01T00:12:53.911Z,73.10
2018-12-01T00:13:27.563Z,73.10
2018-12-01T00:14:01.165Z,73.10
2018-12-01T00:14:35.562Z,73.30
2018-12-01T00:15:11.394Z,74.00
2018-12-01T00:15:44.850Z,74.10
2018-12-01T00:16:19.426Z,73.40
2018-12-01T00:16:53.266Z,73.60
2018-12-01T00:17:26.806Z,73.60
2018-12-01T00:18:01.387Z,73.60
2018-12-01T00:18:34.927Z,73.60
2018-12-01T00:19:08.759Z,73.60
2018-12-01T00:19:42.791Z,73.60
2018-12-01T00:20:19.400Z,73.60
2018-12-01T00:20:54.110Z,73.50
2018-12-01T00:21:27.703Z,73.50
2018-12-01T00:22:01.619Z,73.60
2018-12-01T00:22:36.430Z,73.50
2018-12-01T00:23:10.828Z,73.70
2018-12-01T00:23:44.319Z,73.60
2018-12-01T00:24:18.689Z,73.70
2018-12-01T00:24:52.130Z,73.80
2018-12-01T00:25:25.701Z,74.60
2018-12-01T00:26:00.345Z,73.80
2018-12-01T00:26:34.734Z,73.70
2018-12-01T00:27:08.238Z,73.60
2018-12-01T00:27:41.733Z,73.50
2018-12-01T00:28:16.735Z,73.40
2018-12-01T00:28:50.237Z,73.40
2018-12-01T00:29:24.056Z,73.50
2018-12-01T00:29:58.495Z,73.50
2018-12-01T00:30:32.014Z,73.40
2018-12-01T00:31:06.626Z,73.40
2018-12-01T00:31:40.234Z,73.40
2018-12-01T00:32:15.954Z,73.50
2018-12-01T00:32:50.082Z,73.60
2018-12-01T00:33:23.835Z,73.70
2018-12-01T00:33:59.877Z,73.70
2018-12-01T00:34:33.365Z,73.80
2018-12-01T00:35:08.061Z,73.60
2018-12-01T00:35:42.851Z,73.60
2018-12-01T00:36:16.379Z,73.60
2018-12-01T00:36:50.579Z,73.50
2018-12-01T00:37:24.061Z,73.60
2018-12-01T00:37:58.300Z,74.30
2018-12-01T00:38:31.797Z,73.60
2018-12-01T00:39:08.923Z,73.70
2018-12-01T00:39:42.352Z,73.60
2018-12-01T00:40:18.126Z,73.70
2018-12-01T00:40:52.153Z,73.70
2018-12-01T00:41:25.643Z,73.80
2018-12-01T00:41:59.782Z,73.90
2018-12-01T00:42:33.342Z,74.00
2018-12-01T00:43:06.860Z,74.10
2018-12-01T00:43:41.132Z,74.90
2018-12-01T00:44:14.597Z,73.90
2018-12-01T00:44:49.309Z,73.90
2018-12-01T00:45:23.845Z,73.90
2018-12-01T00:45:57.565Z,73.90
2018-12-01T00:46:31.619Z,73.90
2018-12-01T00:47:05.510Z,74.10
2018-12-01T00:47:39.856Z,74.00
2018-12-01T00:48:15.101Z,74.10
2018-12-01T00:48:48.594Z,74.20
2018-12-01T00:49:22.976Z,74.30
2018-12-01T00:49:56.481Z,74.30
2018-12-01T00:50:30.642Z,74.40
2018-12-01T00:51:04.310Z,74.50
2018-12-01T00:51:37.814Z,74.30
2018-12-01T00:52:11.421Z,74.40
2018-12-01T00:52:45.670Z,74.40
2018-12-01T00:53:19.877Z,74.50
2018-12-01T00:53:53.402Z,74.40
2018-12-01T00:54:27.134Z,74.50
2018-12-01T00:55:01.245Z,74.30
2018-12-01T00:55:34.814Z,74.40
2018-12-01T00:56:09.478Z,74.30
2018-12-01T00:56:42.958Z,74.40
2018-12-01T00:57:18.002Z,74.20
2018-12-01T00:57:51.492Z,74.10
2018-12-01T00:58:26.006Z,74.00
2018-12-01T00:58:59.427Z,74.00
2018-12-01T00:59:33.430Z,74.10
2018-12-01T01:00:12.313Z,74.10
2018-12-01T01:00:46.583Z,74.20
2018-12-01T01:01:20.049Z,74.20
2018-12-01T01:01:54.083Z,74.20
2018-12-01T01:02:33.508Z,74.30
2018-12-01T01:03:07.003Z,74.30
2018-12-01T01:03:40.502Z,74.30
2018-12-01T01:04:13.970Z,74.50
2018-12-01T01:04:47.971Z,74.50
2018-12-01T01:05:24.607Z,74.50
2018-12-01T01:05:58.155Z,74.50
2018-12-01T01:06:32.187Z,74.40
2018-12-01T01:07:05.666Z,74.30
2018-12-01T01:07:39.737Z,74.20
2018-12-01T01:08:13.254Z,74.10
2018-12-01T01:08:47.108Z,74.10
2018-12-01T01:09:21.483Z,74.10
2018-12-01T01:09:54.962Z,74.10
2018-12-01T01:10:31.620Z,74.10
2018-12-01T01:11:07.154Z,74.10
2018-12-01T01:11:40.701Z,74.90
2018-12-01T01:12:14.176Z,74.20
2018-12-01T01:12:47.746Z,74.30
2018-12-01T01:13:21.243Z,74.30
2018-12-01T01:13:55.186Z,74.30
2018-12-01T01:14:28.629Z,74.30
2018-12-01T01:15:02.164Z,74.20
2018-12-01T01:15:35.782Z,74.20
2018-12-01T01:16:09.682Z,74.20
2018-12-01T01:16:43.181Z,74.10
2018-12-01T01:17:17.280Z,74.30
2018-12-01T01:17:50.766Z,74.30
2018-12-01T01:18:24.826Z,74.10
2018-12-01T01:18:58.350Z,74.10
2018-12-01T01:19:31.854Z,74.10
2018-12-01T01:20:12.161Z,74.00
2018-12-01T01:20:46.543Z,73.90
2018-12-01T01:21:20.075Z,74.00
2018-12-01T01:21:53.582Z,74.00
2018-12-01T01:22:27.689Z,74.10
2018-12-01T01:23:01.433Z,74.10
2018-12-01T01:23:35.679Z,73.80
2018-12-01T01:24:09.096Z,74.10
2018-12-01T01:24:42.757Z,74.20
2018-12-01T01:25:16.761Z,74.30
2018-12-01T01:25:51.521Z,74.20
2018-12-01T01:26:25.061Z,74.10
2018-12-01T01:26:59.432Z,74.10
2018-12-01T01:27:32.912Z,74.10
2018-12-01T01:28:07.399Z,74.20
2018-12-01T01:28:40.879Z,74.20
2018-12-01T01:29:14.599Z,74.10
2018-12-01T01:29:48.035Z,74.10
2018-12-01T01:30:23.161Z,74.30
2018-12-01T01:30:56.607Z,75.00
2018-12-01T01:31:30.099Z,74.30
2018-12-01T01:32:03.607Z,74.20
2018-12-01T01:32:37.422Z,74.20
2018-12-01T01:33:22.628Z,74.20
2018-12-01T01:33:56.920Z,74.20
2018-12-01T01:34:30.892Z,74.40
2018-12-01T01:35:19.250Z,74.30
2018-12-01T01:35:52.700Z,74.20
2018-12-01T01:36:26.245Z,74.10
2018-12-01T01:36:59.783Z,74.10
2018-12-01T01:37:33.368Z,74.10
2018-12-01T01:38:06.847Z,74.10
2018-12-01T01:38:40.297Z,73.90
2018-12-01T01:39:13.763Z,73.80
2018-12-01T01:39:47.233Z,73.90
2018-12-01T01:40:20.743Z,73.80
2018-12-01T01:40:59.418Z,73.80
2018-12-01T01:41:32.925Z,73.80
2018-12-01T01:42:06.425Z,74.00
2018-12-01T01:42:40.200Z,74.00
2018-12-01T01:43:13.705Z,74.00
2018-12-01T01:43:47.232Z,74.20
2018-12-01T01:44:20.725Z,74.00
2018-12-01T01:44:54.270Z,74.00
2018-12-01T01:45:32.254Z,74.10
2018-12-01T01:46:06.034Z,74.10
2018-12-01T01:46:39.702Z,73.90
2018-12-01T01:47:13.365Z,74.20
2018-12-01T01:47:47.202Z,74.10
2018-12-01T01:48:20.743Z,74.20
2018-12-01T01:48:54.312Z,74.20
2018-12-01T01:49:27.785Z,74.20
2018-12-01T01:50:01.234Z,74.20
2018-12-01T01:50:34.680Z,74.10
2018-12-01T01:51:08.304Z,74.00
2018-12-01T01:51:41.801Z,74.00
2018-12-01T01:52:15.284Z,74.00
2018-12-01T01:52:49.375Z,74.10
2018-12-01T01:53:22.923Z,74.10
2018-12-01T01:53:57.503Z,74.20
2018-12-01T01:54:30.998Z,74.10
2018-12-01T01:55:05.480Z,74.00
2018-12-01T01:55:38.989Z,74.20
2018-12-01T01:56:12.507Z,74.30
2018-12-01T01:56:45.934Z,74.60
2018-12-01T01:57:19.563Z,74.20
2018-12-01T01:57:53.125Z,74.20
2018-12-01T01:58:26.575Z,74.20
2018-12-01T01:59:00.059Z,74.20
2018-12-01T01:59:33.589Z,74.20
2018-12-01T02:00:19.906Z,74.20
2018-12-01T02:00:53.390Z,74.20
2018-12-01T02:01:26.921Z,74.30
2018-12-01T02:02:00.466Z,74.30
2018-12-01T02:02:34.007Z,74.30
2018-12-01T02:03:07.572Z,74.30
2018-12-01T02:03:41.213Z,74.20
2018-12-01T02:04:14.750Z,74.20
2018-12-01T02:04:48.247Z,74.20
2018-12-01T02:05:22.891Z,74.30
2018-12-01T02:05:56.345Z,74.10
2018-12-01T02:06:29.825Z,74.20
2018-12-01T02:07:03.295Z,74.30
2018-12-01T02:07:36.827Z,74.20
2018-12-01T02:08:10.330Z,74.20
2018-12-01T02:08:43.856Z,74.10
2018-12-01T02:09:17.376Z,74.10
2018-12-01T02:09:50.902Z,74.30
2018-12-01T02:10:24.409Z,74.30
2018-12-01T02:10:57.904Z,74.30
2018-12-01T02:11:31.362Z,74.30
2018-12-01T02:12:05.033Z,74.40
2018-12-01T02:12:38.534Z,74.30
2018-12-01T02:13:12.649Z,74.20
2018-12-01T02:13:46.069Z,74.10
2018-12-01T02:14:19.950Z,74.10
2018-12-01T02:14:53.482Z,74.20
2018-12-01T02:15:26.991Z,74.20
2018-12-01T02:16:00.715Z,74.00
2018-12-01T02:16:34.197Z,73.90
2018-12-01T02:17:07.703Z,74.00
2018-12-01T02:17:41.221Z,73.80
2018-12-01T02:18:14.710Z,73.90
2018-12-01T02:18:48.942Z,73.80
2018-12-01T02:19:22.406Z,73.70
2018-12-01T02:19:55.835Z,73.70
2018-12-01T02:20:29.359Z,73.70
2018-12-01T02:21:02.898Z,73.60
2018-12-01T02:21:37.081Z,73.50
2018-12-01T02:22:10.566Z,73.50
2018-12-01T02:22:44.388Z,73.40
2018-12-01T02:23:17.947Z,73.30
2018-12-01T02:23:51.437Z,73.30
2018-12-01T02:24:25.004Z,73.30
2018-12-01T02:24:58.472Z,73.40
2018-12-01T02:25:31.963Z,73.40
2018-12-01T02:26:05.512Z,73.40
2018-12-01T02:26:39.044Z,73.30
2018-12-01T02:27:12.533Z,73.10
2018-12-01T02:27:46.618Z,73.10
2018-12-01T02:28:20.130Z,73.10
2018-12-01T02:28:53.601Z,73.10
2018-12-01T02:29:27.059Z,73.00
2018-12-01T02:30:00.570Z,73.00
2018-12-01T02:30:34.139Z,73.00
2018-12-01T02:31:08.111Z,72.80
2018-12-01T02:31:41.612Z,72.80
2018-12-01T02:32:15.230Z,72.80
2018-12-01T02:32:49.522Z,72.70
2018-12-01T02:33:23.021Z,72.60
2018-12-01T02:33:56.597Z,72.50
2018-12-01T02:34:30.021Z,72.40
2018-12-01T02:35:03.536Z,72.30
2018-12-01T02:35:36.983Z,72.30
2018-12-01T02:36:10.482Z,72.40
2018-12-01T02:36:44.511Z,72.30
2018-12-01T02:37:18.000Z,72.20
2018-12-01T02:37:51.495Z,72.30
2018-12-01T02:38:25.301Z,72.30
2018-12-01T02:38:58.951Z,72.40
2018-12-01T02:39:32.408Z,72.40
2018-12-01T02:40:08.522Z,72.50
2018-12-01T02:40:42.005Z,72.50
2018-12-01T02:41:15.564Z,72.50
2018-12-01T02:41:49.130Z,72.50
2018-12-01T02:42:22.603Z,72.50
2018-12-01T02:42:56.083Z,72.40
2018-12-01T02:43:29.619Z,72.40
2018-12-01T02:44:14.352Z,72.40
2018-12-01T02:45:08.339Z,72.30
2018-12-01T02:45:53.122Z,72.40
2018-12-01T02:47:35.574Z,72.40
2018-12-01T02:48:09.096Z,72.30
2018-12-01T02:48:42.531Z,72.50
2018-12-01T02:49:16.039Z,72.70
2018-12-01T02:49:49.436Z,72.80
2018-12-01T02:50:27.878Z,73.00
2018-12-01T02:51:01.342Z,73.10
2018-12-01T02:51:34.821Z,73.20
2018-12-01T02:52:08.315Z,73.30
2018-12-01T02:52:42.313Z,73.40
2018-12-01T02:53:15.802Z,73.50
2018-12-01T02:53:49.869Z,73.60
2018-12-01T02:54:23.367Z,73.70
2018-12-01T02:54:56.842Z,73.50
2018-12-01T02:55:30.484Z,73.70
2018-12-01T02:56:03.973Z,73.70
2018-12-01T02:56:37.442Z,73.80
2018-12-01T02:57:10.973Z,74.50
2018-12-01T02:57:44.557Z,73.70
2018-12-01T02:58:18.111Z,73.80
2018-12-01T02:58:51.603Z,73.90
2018-12-01T02:59:25.187Z,73.80
2018-12-01T02:59:58.809Z,73.70
2018-12-01T03:00:32.303Z,73.70
2018-12-01T03:01:06.324Z,73.60
2018-12-01T03:01:39.887Z,73.50
2018-12-01T03:02:13.440Z,73.40
2018-12-01T03:02:46.959Z,73.30
2018-12-01T03:04:23.425Z,73.30
2018-12-01T03:04:56.911Z,73.10
2018-12-01T03:05:30.402Z,73.10
2018-12-01T03:06:03.850Z,73.10
2018-12-01T03:06:37.531Z,73.10
2018-12-01T03:07:11.885Z,73.10
2018-12-01T03:07:45.471Z,73.10
2018-12-01T03:08:19.001Z,73.30
2018-12-01T03:08:52.761Z,73.20
2018-12-01T03:09:27.003Z,73.00
2018-12-01T03:10:00.456Z,73.00
2018-12-01T03:10:33.914Z,73.00
2018-12-01T03:11:07.453Z,72.90
2018-12-01T03:11:40.974Z,72.90
2018-12-01T03:12:14.526Z,72.80
2018-12-01T03:12:47.984Z,72.70
2018-12-01T03:13:21.477Z,72.70
2018-12-01T03:13:55.524Z,72.70
2018-12-01T03:14:28.968Z,72.70
2018-12-01T03:15:02.479Z,72.80
2018-12-01T03:15:36.784Z,72.60
2018-12-01T03:16:10.313Z,72.50
2018-12-01T03:16:43.860Z,72.40
2018-12-01T03:17:17.472Z,72.40
2018-12-01T03:17:52.239Z,73.10
2018-12-01T03:18:25.725Z,72.30
2018-12-01T03:18:59.259Z,72.30
2018-12-01T03:19:32.781Z,72.20
2018-12-01T03:20:14.880Z,71.90
2018-12-01T03:20:48.374Z,71.90
2018-12-01T03:21:21.891Z,71.70
2018-12-01T03:21:55.369Z,71.80
2018-12-01T03:22:28.869Z,72.20
2018-12-01T03:23:02.369Z,71.90
2018-12-01T03:23:36.077Z,71.90
2018-12-01T03:24:09.573Z,71.80
2018-12-01T03:24:43.163Z,71.60
2018-12-01T03:25:23.303Z,71.60
2018-12-01T03:25:56.889Z,71.60
2018-12-01T03:26:30.361Z,71.60
2018-12-01T03:27:03.871Z,71.50
2018-12-01T03:27:37.528Z,71.40
2018-12-01T03:28:11.045Z,71.20
2018-12-01T03:28:44.670Z,71.30
2018-12-01T03:29:18.301Z,71.30
2018-12-01T03:29:51.771Z,71.20
2018-12-01T03:30:26.224Z,71.30
2018-12-01T03:30:59.672Z,71.20
2018-12-01T03:31:33.182Z,71.20
2018-12-01T03:32:06.701Z,71.10
2018-12-01T03:32:40.240Z,71.20
2018-12-01T03:33:13.709Z,71.20
2018-12-01T03:33:47.226Z,71.20
2018-12-01T03:34:20.774Z,71.10
2018-12-01T03:34:54.350Z,71.10
2018-12-01T03:35:27.894Z,71.20
2018-12-01T03:36:01.411Z,71.00
2018-12-01T03:36:34.925Z,71.00
2018-12-01T03:37:09.251Z,71.00
2018-12-01T03:37:43.502Z,70.90
2018-12-01T03:38:17.034Z,71.10
2018-12-01T03:38:50.541Z,71.10
2018-12-01T03:39:24.066Z,71.20
2018-12-01T03:39:57.605Z,71.20
2018-12-01T03:40:35.338Z,71.20
2018-12-01T03:41:08.861Z,71.30
2018-12-01T03:41:42.321Z,71.30
2018-12-01T03:42:15.829Z,71.20
2018-12-01T03:42:49.791Z,71.30
2018-12-01T03:43:23.283Z,71.20
2018-12-01T03:43:56.751Z,71.10
2018-12-01T03:44:30.227Z,71.10
2018-12-01T03:45:04.410Z,71.20
2018-12-01T03:45:38.455Z,71.30
2018-12-01T03:46:12.690Z,71.40
2018-12-01T03:46:46.235Z,71.30
2018-12-01T03:47:20.293Z,71.30
2018-12-01T03:47:53.789Z,71.70
2018-12-01T03:48:27.279Z,71.40
2018-12-01T03:49:00.793Z,71.40
2018-12-01T03:49:34.294Z,71.40
2018-12-01T03:50:09.538Z,71.30
2018-12-01T03:50:43.040Z,71.30
2018-12-01T03:51:16.511Z,71.20
2018-12-01T03:51:49.956Z,71.20
2018-12-01T03:52:23.413Z,71.10
2018-12-01T03:52:57.558Z,71.20
2018-12-01T03:53:31.029Z,71.30
2018-12-01T03:54:04.877Z,71.20
2018-12-01T03:54:38.447Z,71.30
2018-12-01T03:55:22.248Z,71.20
2018-12-01T03:55:55.781Z,71.30
2018-12-01T03:56:29.266Z,71.30
2018-12-01T03:57:03.089Z,71.20
2018-12-01T03:57:36.542Z,71.30
2018-12-01T03:58:09.974Z,71.30
2018-12-01T03:58:43.434Z,71.30
2018-12-01T03:59:16.968Z,71.30
2018-12-01T03:59:51.174Z,71.30
2018-12-01T04:00:28.155Z,71.40
2018-12-01T04:01:01.940Z,71.40
2018-12-01T04:01:35.451Z,71.40
2018-12-01T04:02:08.928Z,71.40
2018-12-01T04:02:42.583Z,71.40
2018-12-01T04:03:16.065Z,71.40
2018-12-01T04:03:49.509Z,71.40
2018-12-01T04:04:23.046Z,71.30
2018-12-01T04:04:56.747Z,71.20
2018-12-01T04:05:30.689Z,71.20
2018-12-01T04:06:04.354Z,71.20
2018-12-01T04:06:37.896Z,71.80
2018-12-01T04:07:12.010Z,71.20
2018-12-01T04:07:45.699Z,71.20
2018-12-01T04:08:19.195Z,71.20
2018-12-01T04:08:52.698Z,71.10
2018-12-01T04:09:26.119Z,71.10
2018-12-01T04:09:59.631Z,71.00
2018-12-01T04:10:33.144Z,71.00
2018-12-01T04:11:06.953Z,70.90
2018-12-01T04:11:40.999Z,70.90
2018-12-01T04:12:14.609Z,70.80
2018-12-01T04:12:48.137Z,70.80
2018-12-01T04:13:22.017Z,70.80
2018-12-01T04:13:55.507Z,71.00
2018-12-01T04:14:28.988Z,70.90
2018-12-01T04:15:02.519Z,70.90
2018-12-01T04:15:36.109Z,70.80
2018-12-01T04:16:09.614Z,70.70
2018-12-01T04:16:43.181Z,70.80
2018-12-01T04:17:16.646Z,70.70
2018-12-01T04:17:50.115Z,70.70
2018-12-01T04:18:23.796Z,70.60
2018-12-01T04:18:57.328Z,70.70
2018-12-01T04:19:31.661Z,70.70
2018-12-01T04:20:05.203Z,70.70
2018-12-01T04:20:38.759Z,70.70
2018-12-01T04:21:12.303Z,70.80
2018-12-01T04:21:45.810Z,70.70
2018-12-01T04:22:19.318Z,70.70
2018-12-01T04:22:52.816Z,70.60
2018-12-01T04:23:26.269Z,70.50
2018-12-01T04:24:00.271Z,70.70
2018-12-01T04:24:33.798Z,70.70
2018-12-01T04:25:08.338Z,70.70
2018-12-01T04:25:41.798Z,70.80
2018-12-01T04:26:15.369Z,70.90
2018-12-01T04:26:48.943Z,70.90
2018-12-01T04:27:22.433Z,71.00
2018-12-01T04:27:55.947Z,71.00
2018-12-01T04:28:29.481Z,71.00
2018-12-01T04:29:03.062Z,70.90
2018-12-01T04:29:37.010Z,71.10
2018-12-01T04:30:22.364Z,71.20
2018-12-01T04:30:56.062Z,71.40
2018-12-01T04:31:29.679Z,71.50
2018-12-01T04:32:03.267Z,71.60
2018-12-01T04:32:36.774Z,71.60
2018-12-01T04:33:10.283Z,71.60
2018-12-01T04:33:43.798Z,71.60
2018-12-01T04:34:17.258Z,71.60
2018-12-01T04:34:50.762Z,71.60
2018-12-01T04:35:24.806Z,71.60
2018-12-01T04:35:58.314Z,71.60
2018-12-01T04:36:31.750Z,71.60
2018-12-01T04:37:05.337Z,71.70
2018-12-01T04:37:38.814Z,71.80
2018-12-01T04:38:12.415Z,71.70
2018-12-01T04:38:45.924Z,71.60
2018-12-01T04:39:20.020Z,71.60
2018-12-01T04:39:53.551Z,71.60
2018-12-01T04:40:27.100Z,71.50
2018-12-01T04:41:00.614Z,71.40
2018-12-01T04:41:34.100Z,71.30
2018-12-01T04:42:07.681Z,71.30
2018-12-01T04:42:41.721Z,71.40
2018-12-01T04:43:15.321Z,71.40
2018-12-01T04:43:48.785Z,71.40
2018-12-01T04:44:22.286Z,71.40
2018-12-01T04:44:55.942Z,71.30
2018-12-01T04:45:29.448Z,71.30
2018-12-01T04:46:03.081Z,71.20
2018-12-01T04:46:36.601Z,71.20
2018-12-01T04:47:10.082Z,71.20
2018-12-01T04:47:44.973Z,71.20
2018-12-01T04:48:18.475Z,71.30
2018-12-01T04:48:51.963Z,71.10
2018-12-01T04:49:25.445Z,71.20
2018-12-01T04:49:59.783Z,71.30
2018-12-01T04:50:33.236Z,71.30
2018-12-01T04:51:06.758Z,71.30
2018-12-01T04:51:40.206Z,71.30
2018-12-01T04:52:13.673Z,71.20
2018-12-01T04:52:48.353Z,71.20
2018-12-01T04:53:21.844Z,71.20
2018-12-01T04:53:55.323Z,71.10
2018-12-01T04:54:29.360Z,71.10
2018-12-01T04:55:02.895Z,71.00
2018-12-01T04:55:36.426Z,71.00
2018-12-01T04:56:09.979Z,70.90
2018-12-01T04:56:43.400Z,70.90
2018-12-01T04:57:16.921Z,70.80
2018-12-01T04:57:50.773Z,70.80
2018-12-01T04:58:24.221Z,71.50
2018-12-01T04:58:57.721Z,70.80
2018-12-01T04:59:31.210Z,71.00
2018-12-01T05:00:05.744Z,70.80
2018-12-01T05:00:39.411Z,70.80
2018-12-01T05:01:12.899Z,70.70
2018-12-01T05:01:46.353Z,70.70
2018-12-01T05:02:19.859Z,70.60
2018-12-01T05:02:53.337Z,70.60
2018-12-01T05:03:26.819Z,70.60
2018-12-01T05:04:00.283Z,70.60
2018-12-01T05:04:33.759Z,70.70
2018-12-01T05:05:09.057Z,70.70
2018-12-01T05:05:42.589Z,70.70
2018-12-01T05:06:16.103Z,70.60
2018-12-01T05:06:49.611Z,70.50
2018-12-01T05:07:23.170Z,70.60
2018-12-01T05:07:56.659Z,70.60
2018-12-01T05:08:30.116Z,70.70
2018-12-01T05:09:04.123Z,70.70
2018-12-01T05:09:37.609Z,70.60
2018-12-01T05:10:13.419Z,70.50
2018-12-01T05:10:46.948Z,70.60
2018-12-01T05:11:20.484Z,70.60
2018-12-01T05:11:53.946Z,70.70
2018-12-01T05:12:27.377Z,70.70
2018-12-01T05:13:00.934Z,70.80
2018-12-01T05:13:34.421Z,70.80
2018-12-01T05:14:07.870Z,70.80
2018-12-01T05:14:41.334Z,70.80
2018-12-01T05:15:16.053Z,70.90
2018-12-01T05:15:49.613Z,71.00
2018-12-01T05:16:23.057Z,70.90
2018-12-01T05:16:56.522Z,70.90
2018-12-01T05:17:29.958Z,71.00
2018-12-01T05:18:03.436Z,71.00
2018-12-01T05:18:36.855Z,71.10
2018-12-01T05:19:10.310Z,71.10
2018-12-01T05:19:43.800Z,71.20
2018-12-01T05:20:19.386Z,71.90
2018-12-01T05:20:52.883Z,71.20
2018-12-01T05:21:26.435Z,71.20
2018-12-01T05:21:59.966Z,71.20
2018-12-01T05:22:33.459Z,71.20
2018-12-01T05:23:06.970Z,71.30
2018-12-01T05:23:40.438Z,71.40
2018-12-01T05:24:13.937Z,71.50
2018-12-01T05:24:47.368Z,71.70
2018-12-01T05:25:20.928Z,71.80
2018-12-01T05:25:54.363Z,71.80
2018-12-01T05:26:27.851Z,71.60
2018-12-01T05:27:01.533Z,71.50
2018-12-01T05:27:35.054Z,71.60
2018-12-01T05:28:08.513Z,71.70
2018-12-01T05:28:42.040Z,71.70
2018-12-01T05:29:15.553Z,71.70
2018-12-01T05:29:49.289Z,72.50
2018-12-01T05:30:22.779Z,71.90
2018-12-01T05:30:56.236Z,71.90
2018-12-01T05:31:29.721Z,71.90
2018-12-01T05:32:03.170Z,71.90
2018-12-01T05:32:37.575Z,72.00
2018-12-01T05:33:11.099Z,72.00
2018-12-01T05:33:44.559Z,72.10
2018-12-01T05:34:18.423Z,72.00
2018-12-01T05:34:51.930Z,72.10
2018-12-01T05:35:25.599Z,72.10
2018-12-01T05:35:59.100Z,72.10
2018-12-01T05:36:32.615Z,72.10
2018-12-01T05:37:06.438Z,72.20
2018-12-01T05:37:40.205Z,72.30
2018-12-01T05:38:13.674Z,72.30
2018-12-01T05:38:47.121Z,72.20
2018-12-01T05:39:20.675Z,73.00
2018-12-01T05:39:54.163Z,72.50
2018-12-01T05:40:27.597Z,72.50
2018-12-01T05:41:01.107Z,72.50
2018-12-01T05:41:34.605Z,72.70
2018-12-01T05:42:08.110Z,72.80
2018-12-01T05:42:41.617Z,72.60
2018-12-01T05:43:15.113Z,72.60
2018-12-01T05:43:48.874Z,72.70
2018-12-01T05:44:22.338Z,72.40
2018-12-01T05:44:55.837Z,72.80
2018-12-01T05:45:29.363Z,72.70
2018-12-01T05:46:02.891Z,72.70
2018-12-01T05:46:36.851Z,73.40
2018-12-01T05:47:09.948Z,72.60
2018-12-01T05:47:43.448Z,72.70
2018-12-01T05:48:16.950Z,72.80
2018-12-01T05:48:50.420Z,72.80
2018-12-01T05:49:23.917Z,72.70
2018-12-01T05:49:57.362Z,72.60
2018-12-01T05:50:30.842Z,72.70
2018-12-01T05:51:04.329Z,72.70
2018-12-01T05:51:37.948Z,72.70
2018-12-01T05:52:11.418Z,72.60
2018-12-01T05:52:44.961Z,72.60
2018-12-01T05:53:18.488Z,72.50
2018-12-01T05:53:52.196Z,72.40
2018-12-01T05:54:25.718Z,72.50
2018-12-01T05:54:59.157Z,72.40
2018-12-01T05:55:32.669Z,72.40
2018-12-01T05:56:06.161Z,72.40
2018-12-01T05:56:39.647Z,72.20
2018-12-01T05:57:13.391Z,72.10
2018-12-01T05:57:46.937Z,72.20
2018-12-01T05:58:20.438Z,72.10
2018-12-01T05:58:53.919Z,72.10
2018-12-01T05:59:27.459Z,72.90
2018-12-01T06:00:00.974Z,72.30
2018-12-01T06:00:34.413Z,72.30
2018-12-01T06:01:07.845Z,72.30
2018-12-01T06:01:41.354Z,72.30
2018-12-01T06:02:14.789Z,72.40
2018-12-01T06:02:48.335Z,72.60
2018-12-01T06:03:21.899Z,72.50
2018-12-01T06:03:55.359Z,72.60
2018-12-01T06:04:29.033Z,72.50
2018-12-01T06:05:02.565Z,72.60
2018-12-01T06:05:36.094Z,72.50
2018-12-01T06:06:09.634Z,72.50
2018-12-01T06:06:43.131Z,72.50
2018-12-01T06:07:16.787Z,72.30
2018-12-01T06:07:50.262Z,72.30
2018-12-01T06:08:23.739Z,72.40
2018-12-01T06:08:57.271Z,72.50
2018-12-01T06:09:30.818Z,72.40
2018-12-01T06:10:05.757Z,72.30
2018-12-01T06:10:39.294Z,72.30
2018-12-01T06:11:12.810Z,72.40
2018-12-01T06:11:46.258Z,72.50
2018-12-01T06:12:19.791Z,72.30
2018-12-01T06:12:53.956Z,72.30
2018-12-01T06:13:27.457Z,72.30
2018-12-01T06:14:00.978Z,72.30
2018-12-01T06:14:34.470Z,72.40
2018-12-01T06:15:09.859Z,72.50
2018-12-01T06:15:44.663Z,72.50
2018-12-01T06:16:18.177Z,72.60
2018-12-01T06:16:51.628Z,72.50
2018-12-01T06:17:25.162Z,72.50
2018-12-01T06:17:58.680Z,72.50
2018-12-01T06:18:32.165Z,72.50
2018-12-01T06:19:06.398Z,72.50
2018-12-01T06:19:40.521Z,72.50
2018-12-01T06:20:16.417Z,72.30
2018-12-01T06:20:49.896Z,72.10
2018-12-01T06:21:23.359Z,72.80
2018-12-01T06:21:56.815Z,72.00
2018-12-01T06:22:30.254Z,71.90
2018-12-01T06:23:03.709Z,71.90
2018-12-01T06:23:37.138Z,71.80
2018-12-01T06:24:10.631Z,71.80
2018-12-01T06:24:44.079Z,72.00
2018-12-01T06:25:18.722Z,72.10
2018-12-01T06:25:52.229Z,71.90
2018-12-01T06:26:25.717Z,71.90
2018-12-01T06:26:59.232Z,72.60
2018-12-01T06:27:32.772Z,71.80
2018-12-01T06:28:06.468Z,71.70
2018-12-01T06:28:39.902Z,71.80
2018-12-01T06:29:13.402Z,71.70
2018-12-01T06:29:46.864Z,71.80
2018-12-01T06:30:21.349Z,71.50
2018-12-01T06:30:54.884Z,71.40
2018-12-01T06:31:28.309Z,71.30
2018-12-01T06:32:01.770Z,71.30
2018-12-01T06:32:35.259Z,71.30
2018-12-01T06:33:08.746Z,71.30
2018-12-01T06:33:42.310Z,72.10
2018-12-01T06:34:16.427Z,71.40
2018-12-01T06:34:50.140Z,71.50
2018-12-01T06:35:23.621Z,71.50
2018-12-01T06:35:57.109Z,71.40
2018-12-01T06:36:30.644Z,71.50
2018-12-01T06:37:04.177Z,71.60
2018-12-01T06:37:37.868Z,72.40
2018-12-01T06:38:11.425Z,71.90
2018-12-01T06:38:44.954Z,72.00
2018-12-01T06:39:18.390Z,72.10
2018-12-01T06:39:51.929Z,72.10
2018-12-01T06:40:25.426Z,72.00
2018-12-01T06:40:58.939Z,71.90
2018-12-01T06:41:32.439Z,71.90
2018-12-01T06:42:06.466Z,72.00
2018-12-01T06:42:39.993Z,71.90
2018-12-01T06:43:13.637Z,72.10
2018-12-01T06:43:47.181Z,72.10
2018-12-01T06:44:20.721Z,72.00
2018-12-01T06:44:54.214Z,71.90
2018-12-01T06:45:27.770Z,71.90
2018-12-01T06:46:01.242Z,72.00
2018-12-01T06:46:34.743Z,71.90
2018-12-01T06:47:08.266Z,72.00
2018-12-01T06:47:42.430Z,71.80
2018-12-01T06:48:15.893Z,71.80
2018-12-01T06:48:49.426Z,71.70
2018-12-01T06:49:22.922Z,71.70
2018-12-01T06:49:56.405Z,71.60
2018-12-01T06:50:29.855Z,71.60
2018-12-01T06:51:03.319Z,71.50
2018-12-01T06:51:36.867Z,71.50
2018-12-01T06:52:10.376Z,71.50
2018-12-01T06:52:44.195Z,71.50
2018-12-01T06:53:17.678Z,71.60
2018-12-01T06:53:51.201Z,71.50
2018-12-01T06:54:24.791Z,71.40
2018-12-01T06:54:58.267Z,71.40
2018-12-01T06:55:31.742Z,71.40
2018-12-01T06:56:06.276Z,71.30
2018-12-01T06:56:39.790Z,72.00
2018-12-01T06:57:14.316Z,71.20
2018-12-01T06:57:48.414Z,71.30
2018-12-01T06:58:21.902Z,71.30
2018-12-01T06:58:55.366Z,71.20
2018-12-01T06:59:28.855Z,71.30
2018-12-01T07:00:02.322Z,71.30
2018-12-01T07:00:35.784Z,71.20
2018-12-01T07:01:10.287Z,71.20
2018-12-01T07:01:43.756Z,71.20
2018-12-01T07:02:17.250Z,71.10
2018-12-01T07:02:51.089Z,71.00
2018-12-01T07:03:25.213Z,70.90
2018-12-01T07:03:59.601Z,70.80
2018-12-01T07:04:33.099Z,70.70
2018-12-01T07:05:08.294Z,70.70
2018-12-01T07:05:41.814Z,70.90
2018-12-01T07:06:15.326Z,70.70
2018-12-01T07:06:48.770Z,70.60
2018-12-01T07:07:22.369Z,70.70
2018-12-01T07:07:55.822Z,70.60
2018-12-01T07:08:29.317Z,70.50
2018-12-01T07:09:02.829Z,70.50
2018-12-01T07:09:36.281Z,70.50
2018-12-01T07:10:12.094Z,70.50
2018-12-01T07:10:45.586Z,70.50
2018-12-01T07:11:19.070Z,70.40
2018-12-01T07:11:54.739Z,70.20
2018-12-01T07:12:29.906Z,70.30
2018-12-01T07:13:04.303Z,70.10
2018-12-01T07:13:37.813Z,70.10
2018-12-01T07:14:11.391Z,70.10
2018-12-01T07:14:44.839Z,70.20
2018-12-01T07:15:21.934Z,70.10
2018-12-01T07:15:55.388Z,70.10
2018-12-01T07:16:28.890Z,70.20
2018-12-01T07:17:02.413Z,70.20
2018-12-01T07:17:35.919Z,70.20
2018-12-01T07:18:20.658Z,70.20
2018-12-01T07:19:05.203Z,70.50
2018-12-01T07:19:38.996Z,70.40